Flight Track Log - Related Links

Times and Time Zones

All times are in EDT time to prevent confusion due to time zone crossing. See the FLG3800 flight status page for this flight to view local times or setup timezone preferences in your user account.

Time Position Orientation Groundspeed Altitude Reporting Facility
EDT Latitude Longitude Course Direction KTS MPH feet Rate Location/Type
Thu 08:09:33 AM 42.2036 -85.5275 106° East 147 169 2,500  Level Chicago Center
Thu 08:10:34 AM 42.1869 -85.4356 104° East 233 268 4,000 1,968 Climbing Chicago Center
Thu 08:11:38 AM 42.1661 -85.3294 105° East 284 327 6,600 2,565 Climbing Cleveland Center
Thu 08:12:38 AM 42.1478 -85.2161 102° East 284 327 9,300 2,150 Climbing Cleveland Center
Thu 08:13:00 AM 42.1366 -85.1092 106° East  Level FlightAware Approximate
Thu 08:13:38 AM 42.1236 -85.0911 105° East 297 342 10,900  Level Cleveland Center
Thu 08:14:00 AM 42.1175 -85.0203 106° East  Level FlightAware Approximate
Thu 08:14:38 AM 42.0997 -84.9550 103° East 334 384 11,000  Level Cleveland Center
Thu 08:15:38 AM 42.0672 -84.8183 108° East 362 417 11,000  Level Cleveland Center
Thu 08:16:38 AM 42.0283 -84.6900 112° Southeast 369 425 11,000  Level Cleveland Center
Thu 08:17:38 AM 41.9869 -84.5589 113° Southeast 374 430 11,000  Level Cleveland Center
Thu 08:18:38 AM 41.9475 -84.4278 112° Southeast 379 436 11,000  Level Cleveland Center
Thu 08:19:03 AM 41.9264 -84.3764 119° Southeast 375 432 11,000  Level Cleveland Center
Thu 08:19:38 AM 41.9081 -84.3000 108° East 379 436 11,000  Level Cleveland Center
Thu 08:20:34 AM 41.8661 -84.1775 115° Southeast 381 438 11,000  Level Cleveland Center
Thu 08:21:38 AM 41.8347 -84.0475 108° East 379 436 11,000  Level Cleveland Center
Thu 08:22:38 AM 41.8950 -83.9139 59° Northeast 362 417 11,000  Level Cleveland Center
Thu 08:23:37 AM 41.9836 -83.7958 45° Northeast 426 490 11,000  Level Cleveland Center
Thu 08:24:49 AM 42.0956 -83.6669 40° Northeast 426 490 11,000  Level Cleveland Center
Thu 08:25:38 AM 42.1561 -83.5942 42° Northeast 405 466 11,000  Level Cleveland Center
Thu 08:25:56 AM 42.1903 -83.5622 35° Northeast 346 398 11,000  Level Cleveland Center
Thu 08:26:38 AM 42.2247 -83.5133 46° Northeast 383 441 11,000 -627 Level Cleveland Center
Thu 08:27:03 AM 42.2669 -83.4931 20° North 301 346 10,300 -1,300 Descending Cleveland Center
Thu 08:27:38 AM 42.3050 -83.4694 25° Northeast 313 360 9,700 -1,200 Descending Cleveland Center
Thu 08:28:38 AM 42.3811 -83.4308 21° North 288 331 8,400 -1,535 Descending Cleveland Center
Thu 08:29:47 AM 42.4703 -83.3700 27° Northeast 277 319 6,400 -1,809 Descending Cleveland Center
Thu 08:30:54 AM 42.4575 -83.2878 102° East 213 245 4,300 -1,453 Descending Cleveland Center
Thu 08:31:55 AM 42.3975 -83.2656 165° South 205 236 3,300 -609 Descending Cleveland Center
Thu 08:33:02 AM 42.3494 -83.2719 186° South 150 173 3,000 -207 Descending Cleveland Center
Thu 08:33:51 AM 42.3217 -83.2989 216° Southwest 146 168 2,900 -122 Descending Cleveland Center

Login

Don't have an account? Register now (free) for customized features, flight alerts, and more!